Time,TemperatureF,DewpointF,PressureIn,WindDirection,WindDirectionDegrees,WindSpeedMPH,WindSpeedGustMPH,Humidity,HourlyPrecipIn,Conditions,Clouds,dailyrainin,SolarRadiationWatts/m^2,SoftwareType,DateUTC
2013-07-13 00:11:00,-999.0,-99.9,30.23,NE,44,0.0,-999.0,-999,-99.99,,,0.00,0,weatherlink.com 1.10,2013-07-13 04:11:00,
2013-07-13 00:26:00,-90.0,-99.9,30.23,NE,44,0.0,-999.0,-999,-99.99,,,0.00,0,weatherlink.com 1.10,2013-07-13 04:26:00,
2013-07-13 00:41:00,-90.0,-99.9,30.23,NE,44,0.0,-999.0,-999,-99.99,,,0.00,0,weatherlink.com 1.10,2013-07-13 04:41:00,
2013-07-13 00:56:00,-90.0,-99.9,30.23,NE,44,0.0,-999.0,-999,-99.99,,,0.00,0,weatherlink.com 1.10,2013-07-13 04:56:00,
2013-07-13 01:11:00,-90.0,-99.9,30.23,NE,44,0.0,-999.0,-999,-99.99,,,0.00,0,weatherlink.com 1.10,2013-07-13 05:11:00,
2013-07-13 01:25:00,-90.0,-99.9,30.23,NE,44,0.0,-999.0,-999,-99.99,,,0.00,0,weatherlink.com 1.10,2013-07-13 05:25:00,
2013-07-13 01:41:00,-90.0,-99.9,30.24,NE,44,0.0,-999.0,-999,-99.99,,,0.00,0,weatherlink.com 1.10,2013-07-13 05:41:00,
2013-07-13 01:56:00,-90.0,-99.9,30.24,NE,44,0.0,-999.0,-999,-99.99,,,0.00,0,weatherlink.com 1.10,2013-07-13 05:56:00,
2013-07-13 02:11:00,-90.0,-99.9,30.23,NE,44,0.0,-999.0,-999,-99.99,,,0.00,0,weatherlink.com 1.10,2013-07-13 06:11:00,
2013-07-13 02:25:00,-90.0,-99.9,30.23,NE,44,0.0,-999.0,-999,-99.99,,,0.00,0,weatherlink.com 1.10,2013-07-13 06:25:00,
2013-07-13 02:41:00,-90.0,-99.9,30.23,NE,44,0.0,-999.0,-999,-99.99,,,0.00,0,weatherlink.com 1.10,2013-07-13 06:41:00,
2013-07-13 02:55:00,-90.0,-99.9,30.23,NE,44,0.0,-999.0,-999,-99.99,,,0.00,0,weatherlink.com 1.10,2013-07-13 06:55:00,
2013-07-13 03:11:00,-90.0,-99.9,30.23,NE,44,0.0,-999.0,-999,-99.99,,,0.00,0,weatherlink.com 1.10,2013-07-13 07:11:00,
2013-07-13 03:26:00,-90.0,-99.9,30.23,NE,44,0.0,-999.0,-999,-99.99,,,0.00,0,weatherlink.com 1.10,2013-07-13 07:26:00,
2013-07-13 03:41:00,-90.0,-99.9,30.23,NE,44,0.0,-999.0,-999,-99.99,,,0.00,0,weatherlink.com 1.10,2013-07-13 07:41:00,
2013-07-13 03:56:00,-90.0,-99.9,30.23,NE,44,0.0,-999.0,-999,-99.99,,,0.00,0,weatherlink.com 1.10,2013-07-13 07:56:00,
2013-07-13 04:11:00,-90.0,-99.9,30.24,NE,44,0.0,-999.0,-999,-99.99,,,0.00,0,weatherlink.com 1.10,2013-07-13 08:11:00,
2013-07-13 04:26:00,-90.0,-99.9,30.24,NE,44,0.0,-999.0,-999,-99.99,,,0.00,0,weatherlink.com 1.10,2013-07-13 08:26:00,
2013-07-13 04:41:00,-90.0,-99.9,30.24,NE,44,0.0,-999.0,-999,-99.99,,,0.00,0,weatherlink.com 1.10,2013-07-13 08:41:00,
2013-07-13 04:56:00,-90.0,-99.9,30.24,NE,44,0.0,-999.0,-999,-99.99,,,0.00,0,weatherlink.com 1.10,2013-07-13 08:56:00,
2013-07-13 05:11:00,-90.0,-99.9,30.24,NE,44,0.0,-999.0,-999,-99.99,,,0.00,0,weatherlink.com 1.10,2013-07-13 09:11:00,
2013-07-13 05:26:00,-90.0,-99.9,30.25,NE,44,0.0,-999.0,-999,-99.99,,,0.00,0,weatherlink.com 1.10,2013-07-13 09:26:00,
2013-07-13 05:41:00,-90.0,-99.9,30.25,NE,44,0.0,-999.0,-999,-99.99,,,0.00,0,weatherlink.com 1.10,2013-07-13 09:41:00,
2013-07-13 05:56:00,-90.0,-99.9,30.25,NE,44,0.0,-999.0,-999,-99.99,,,0.00,5,weatherlink.com 1.10,2013-07-13 09:56:00,
2013-07-13 06:11:00,-90.0,-99.9,30.26,NE,44,0.0,-999.0,-999,-99.99,,,0.00,11,weatherlink.com 1.10,2013-07-13 10:11:00,
2013-07-13 06:26:00,-90.0,-99.9,30.26,NE,44,0.0,-999.0,-999,-99.99,,,0.00,18,weatherlink.com 1.10,2013-07-13 10:26:00,
2013-07-13 06:41:00,-90.0,-99.9,30.26,NE,44,0.0,-999.0,-999,-99.99,,,0.00,32,weatherlink.com 1.10,2013-07-13 10:41:00,
2013-07-13 06:55:00,-90.0,-99.9,30.26,NE,44,0.0,-999.0,-999,-99.99,,,0.00,51,weatherlink.com 1.10,2013-07-13 10:55:00,
2013-07-13 07:11:00,-90.0,-99.9,30.26,NE,44,0.0,-999.0,-999,-99.99,,,0.00,77,weatherlink.com 1.10,2013-07-13 11:11:00,
2013-07-13 07:26:00,-86.6,-99.9,30.26,NE,44,0.0,-999.0,-999,-99.99,,,0.00,79,weatherlink.com 1.10,2013-07-13 11:26:00,
2013-07-13 07:41:00,-84.3,-99.9,30.26,NE,44,0.0,-999.0,-999,-99.99,,,0.00,91,weatherlink.com 1.10,2013-07-13 11:41:00,
2013-07-13 07:56:00,-79.7,-99.9,30.26,NE,44,0.0,-999.0,-999,-99.99,,,0.00,95,weatherlink.com 1.10,2013-07-13 11:56:00,
2013-07-13 08:11:00,-75.1,-99.9,30.27,NE,44,0.0,-999.0,-999,-99.99,,,0.00,120,weatherlink.com 1.10,2013-07-13 12:11:00,
2013-07-13 08:26:00,-70.5,-99.9,30.27,NE,44,0.0,-999.0,-999,-99.99,,,0.00,206,weatherlink.com 1.10,2013-07-13 12:26:00,
2013-07-13 08:41:00,-56.8,-99.9,30.27,NNE,33,0.0,-999.0,-999,-99.99,,,0.00,246,weatherlink.com 1.10,2013-07-13 12:41:00,
2013-07-13 08:55:00,-48.9,-99.9,30.28,NNE,19,0.0,-999.0,-999,-99.99,,,0.00,260,weatherlink.com 1.10,2013-07-13 12:55:00,
2013-07-13 09:11:00,-49.5,-99.9,30.28,NW,315,0.0,-999.0,-999,-99.99,,,0.00,336,weatherlink.com 1.10,2013-07-13 13:11:00,
2013-07-13 09:26:00,-45.5,-99.9,30.27,NW,315,0.0,-999.0,-999,-99.99,,,0.00,563,weatherlink.com 1.10,2013-07-13 13:26:00,
2013-07-13 09:41:00,-43.8,-99.9,30.27,NNE,22,0.0,-999.0,-999,-99.99,,,0.00,436,weatherlink.com 1.10,2013-07-13 13:41:00,
2013-07-13 09:56:00,-79.7,-99.9,30.27,SE,125,0.0,-999.0,-999,-99.99,,,0.00,640,weatherlink.com 1.10,2013-07-13 13:56:00,
2013-07-13 10:11:00,78.7,50.0,30.27,NE,34,0.0,-999.0,36,-99.99,,,0.00,686,weatherlink.com 1.10,2013-07-13 14:11:00,
2013-07-13 10:26:00,78.7,51.0,30.27,ENE,59,0.0,-999.0,38,-99.99,,,0.00,432,weatherlink.com 1.10,2013-07-13 14:26:00,
2013-07-13 10:41:00,79.1,53.0,30.26,ENE,71,4.0,-999.0,40,-99.99,,,0.00,346,weatherlink.com 1.10,2013-07-13 14:41:00,
2013-07-13 10:55:00,80.1,56.0,30.26,East,89,3.0,-999.0,43,-99.99,,,0.00,374,weatherlink.com 1.10,2013-07-13 14:55:00,
2013-07-13 11:11:00,79.9,54.0,30.26,East,86,1.0,-999.0,41,-99.99,,,0.00,392,weatherlink.com 1.10,2013-07-13 15:11:00,
2013-07-13 11:26:00,79.3,54.0,30.26,ENE,70,0.0,-999.0,42,-99.99,,,0.00,315,weatherlink.com 1.10,2013-07-13 15:26:00,
2013-07-13 11:41:00,80.6,57.0,30.26,ENE,69,3.0,-999.0,45,-99.99,,,0.00,436,weatherlink.com 1.10,2013-07-13 15:41:00,
2013-07-13 11:56:00,79.5,56.0,30.26,ENE,78,4.0,-999.0,44,-99.99,,,0.00,341,weatherlink.com 1.10,2013-07-13 15:56:00,
2013-07-13 12:11:00,80.0,56.0,30.26,ENE,74,3.0,-999.0,44,-99.99,,,0.00,272,weatherlink.com 1.10,2013-07-13 16:11:00,
2013-07-13 12:26:00,79.9,54.0,30.26,NE,36,5.0,-999.0,41,-99.99,,,0.00,248,weatherlink.com 1.10,2013-07-13 16:26:00,
2013-07-13 12:41:00,79.4,51.0,30.26,ENE,62,4.0,-999.0,37,-99.99,,,0.00,260,weatherlink.com 1.10,2013-07-13 16:41:00,
2013-07-13 12:56:00,79.0,50.0,30.27,East,94,3.0,-999.0,36,-99.99,,,0.00,287,weatherlink.com 1.10,2013-07-13 16:56:00,
2013-07-13 13:11:00,79.3,51.0,30.26,ENE,75,6.0,-999.0,37,-99.99,,,0.00,434,weatherlink.com 1.10,2013-07-13 17:11:00,
2013-07-13 13:26:00,80.6,56.0,30.26,ENE,57,3.0,-999.0,43,-99.99,,,0.00,842,weatherlink.com 1.10,2013-07-13 17:26:00,
2013-07-13 13:40:00,81.0,57.0,30.26,ENE,68,3.0,-999.0,44,-99.99,,,0.00,1211,weatherlink.com 1.10,2013-07-13 17:40:00,
2013-07-13 13:56:00,80.5,57.0,30.26,ENE,77,2.0,-999.0,45,-99.99,,,0.00,410,weatherlink.com 1.10,2013-07-13 17:56:00,
2013-07-13 14:11:00,80.8,57.0,30.25,SE,141,0.0,-999.0,44,-99.99,,,0.00,381,weatherlink.com 1.10,2013-07-13 18:11:00,
2013-07-13 14:26:00,80.8,56.0,30.26,East,83,5.0,-999.0,43,-99.99,,,0.00,309,weatherlink.com 1.10,2013-07-13 18:26:00,
2013-07-13 14:40:00,81.3,57.0,30.26,ENE,74,0.0,-999.0,43,-99.99,,,0.00,424,weatherlink.com 1.10,2013-07-13 18:40:00,
2013-07-13 14:56:00,82.2,59.0,30.25,ESE,123,3.0,-999.0,46,-99.99,,,0.00,643,weatherlink.com 1.10,2013-07-13 18:56:00,
2013-07-13 15:11:00,81.9,59.0,30.25,ENE,75,4.0,-999.0,45,-99.99,,,0.00,438,weatherlink.com 1.10,2013-07-13 19:11:00,
2013-07-13 15:26:00,82.1,59.0,30.25,East,100,4.0,-999.0,45,-99.99,,,0.00,350,weatherlink.com 1.10,2013-07-13 19:26:00,
2013-07-13 15:41:00,81.5,57.0,30.25,ENE,72,6.0,-999.0,43,-99.99,,,0.00,366,weatherlink.com 1.10,2013-07-13 19:41:00,
2013-07-13 15:56:00,82.3,58.0,30.25,SSE,158,0.0,-999.0,44,-99.99,,,0.00,584,weatherlink.com 1.10,2013-07-13 19:56:00,
2013-07-13 16:10:00,82.0,58.0,30.25,ESE,107,2.0,-999.0,44,-99.99,,,0.00,267,weatherlink.com 1.10,2013-07-13 20:10:00,
2013-07-13 16:25:00,81.8,56.0,30.25,SSE,167,0.0,-999.0,42,-99.99,,,0.00,276,weatherlink.com 1.10,2013-07-13 20:25:00,
2013-07-13 16:40:00,81.4,57.0,30.25,ENE,72,3.0,-999.0,43,-99.99,,,0.00,237,weatherlink.com 1.10,2013-07-13 20:40:00,
2013-07-13 16:55:00,81.5,56.0,30.25,ENE,78,2.0,-999.0,41,-99.99,,,0.00,272,weatherlink.com 1.10,2013-07-13 20:55:00,
2013-07-13 17:11:00,82.0,56.0,30.25,East,101,3.0,-999.0,41,-99.99,,,0.00,230,weatherlink.com 1.10,2013-07-13 21:11:00,
2013-07-13 17:26:00,82.1,55.0,30.25,East,101,3.0,-999.0,40,-99.99,,,0.00,181,weatherlink.com 1.10,2013-07-13 21:26:00,
2013-07-13 17:41:00,82.0,55.0,30.25,East,84,0.0,-999.0,40,-99.99,,,0.00,213,weatherlink.com 1.10,2013-07-13 21:41:00,
2013-07-13 17:56:00,82.1,56.0,30.25,ESE,117,0.0,-999.0,41,-99.99,,,0.00,246,weatherlink.com 1.10,2013-07-13 21:56:00,
2013-07-13 18:11:00,82.3,56.0,30.25,SSE,157,3.0,-999.0,41,-99.99,,,0.00,262,weatherlink.com 1.10,2013-07-13 22:11:00,
2013-07-13 18:26:00,82.4,57.0,30.25,SE,140,3.0,-999.0,42,-99.99,,,0.00,160,weatherlink.com 1.10,2013-07-13 22:26:00,
2013-07-13 18:41:00,82.0,55.0,30.25,SE,134,0.0,-999.0,40,-99.99,,,0.00,120,weatherlink.com 1.10,2013-07-13 22:41:00,
2013-07-13 18:55:00,81.9,57.0,30.25,SSE,148,3.0,-999.0,42,-99.99,,,0.00,97,weatherlink.com 1.10,2013-07-13 22:55:00,
2013-07-13 19:11:00,81.6,55.0,30.25,SE,128,1.0,-999.0,40,-99.99,,,0.00,65,weatherlink.com 1.10,2013-07-13 23:11:00,
2013-07-13 19:26:00,81.1,55.0,30.25,SE,130,0.0,-999.0,41,-99.99,,,0.00,63,weatherlink.com 1.10,2013-07-13 23:26:00,
2013-07-13 19:41:00,81.1,55.0,30.25,ESE,103,0.0,-999.0,40,-99.99,,,0.00,47,weatherlink.com 1.10,2013-07-13 23:41:00,
2013-07-13 19:55:00,81.0,53.0,30.26,SSE,149,0.0,-999.0,38,-99.99,,,0.00,35,weatherlink.com 1.10,2013-07-13 23:55:00,
2013-07-13 20:11:00,80.9,51.0,30.26,SSE,150,0.0,-999.0,36,-99.99,,,0.00,18,weatherlink.com 1.10,2013-07-14 00:11:00,
2013-07-13 20:26:00,80.8,51.0,30.26,SSE,150,0.0,-999.0,36,-99.99,,,0.00,11,weatherlink.com 1.10,2013-07-14 00:26:00,
2013-07-13 20:41:00,80.6,50.0,30.27,SSE,150,0.0,-999.0,34,-99.99,,,0.00,5,weatherlink.com 1.10,2013-07-14 00:41:00,
2013-07-13 20:56:00,80.3,48.0,30.27,SSE,149,0.0,-999.0,32,-99.99,,,0.00,0,weatherlink.com 1.10,2013-07-14 00:56:00,
2013-07-13 21:11:00,80.1,46.0,30.27,SSE,150,0.0,-999.0,30,-99.99,,,0.00,0,weatherlink.com 1.10,2013-07-14 01:11:00,
2013-07-13 21:25:00,80.0,45.0,30.27,SSE,150,0.0,-999.0,29,-99.99,,,0.00,0,weatherlink.com 1.10,2013-07-14 01:25:00,
2013-07-13 21:41:00,79.7,42.0,30.27,SSE,149,0.0,-999.0,26,-99.99,,,0.00,0,weatherlink.com 1.10,2013-07-14 01:41:00,
2013-07-13 21:56:00,79.4,40.0,30.28,SE,138,0.0,-999.0,24,-99.99,,,0.00,0,weatherlink.com 1.10,2013-07-14 01:56:00,
2013-07-13 22:11:00,79.1,38.0,30.28,SE,137,0.0,-999.0,23,-99.99,,,0.00,0,weatherlink.com 1.10,2013-07-14 02:11:00,
2013-07-13 22:25:00,78.8,37.0,30.29,SE,145,0.0,-999.0,22,-99.99,,,0.00,0,weatherlink.com 1.10,2013-07-14 02:25:00,
2013-07-13 22:41:00,78.5,35.0,30.29,SE,126,0.0,-999.0,21,-99.99,,,0.00,0,weatherlink.com 1.10,2013-07-14 02:41:00,
2013-07-13 22:56:00,78.1,35.0,30.29,SE,134,0.0,-999.0,21,-99.99,,,0.00,0,weatherlink.com 1.10,2013-07-14 02:56:00,
2013-07-13 23:11:00,77.6,33.0,30.29,SE,134,0.0,-999.0,20,-99.99,,,0.00,0,weatherlink.com 1.10,2013-07-14 03:11:00,
2013-07-13 23:26:00,-90.0,-99.9,30.29,SE,130,0.0,-999.0,20,-99.99,,,0.00,0,weatherlink.com 1.10,2013-07-14 03:26:00,
2013-07-13 23:41:00,-90.0,-99.9,30.29,SE,130,0.0,-999.0,-999,-99.99,,,0.00,0,weatherlink.com 1.10,2013-07-14 03:41:00,
2013-07-13 23:56:00,-90.0,-99.9,30.29,SE,130,0.0,-999.0,-999,-99.99,,,0.00,0,weatherlink.com 1.10,2013-07-14 03:56:00,